createdAt,value
2018-08-10T00:00:18.490Z,22.87
2018-08-10T00:00:49.648Z,22.84
2018-08-10T00:01:20.801Z,22.86
2018-08-10T00:01:51.924Z,22.88
2018-08-10T00:02:23.044Z,22.88
2018-08-10T00:02:54.159Z,22.90
2018-08-10T00:03:25.263Z,22.91
2018-08-10T00:03:56.423Z,22.91
2018-08-10T00:04:27.576Z,22.89
2018-08-10T00:04:58.749Z,22.89
2018-08-10T00:05:29.937Z,22.90
2018-08-10T00:06:01.062Z,22.91
2018-08-10T00:06:32.368Z,22.90
2018-08-10T00:07:03.507Z,22.90
2018-08-10T00:07:34.677Z,22.90
2018-08-10T00:08:05.945Z,22.87
2018-08-10T00:08:37.117Z,22.82
2018-08-10T00:09:08.898Z,22.82
2018-08-10T00:09:40.897Z,22.79
2018-08-10T00:10:12.084Z,22.79
2018-08-10T00:10:43.195Z,22.77
2018-08-10T00:11:14.303Z,22.75
2018-08-10T00:11:45.451Z,22.73
2018-08-10T00:12:16.679Z,22.75
2018-08-10T00:12:47.796Z,22.75
2018-08-10T00:13:18.914Z,22.72
2018-08-10T00:13:50.028Z,22.68
2018-08-10T00:14:21.268Z,22.69
2018-08-10T00:14:52.389Z,22.70
2018-08-10T00:15:23.553Z,22.72
2018-08-10T00:15:54.679Z,22.70
2018-08-10T00:16:25.791Z,22.69
2018-08-10T00:16:56.945Z,22.68
2018-08-10T00:17:28.111Z,22.64
2018-08-10T00:17:59.281Z,22.63
2018-08-10T00:18:30.466Z,22.64
2018-08-10T00:19:01.588Z,22.63
2018-08-10T00:19:32.700Z,22.65
2018-08-10T00:20:03.809Z,22.69
2018-08-10T00:20:34.987Z,22.73
2018-08-10T00:21:06.163Z,22.77
2018-08-10T00:21:37.310Z,22.77
2018-08-10T00:22:08.420Z,22.81
2018-08-10T00:22:39.531Z,22.81
2018-08-10T00:23:10.748Z,22.81
2018-08-10T00:23:41.871Z,22.80
2018-08-10T00:24:13.041Z,22.83
2018-08-10T00:24:44.314Z,22.84
2018-08-10T00:25:15.484Z,22.87
2018-08-10T00:25:46.608Z,22.88
2018-08-10T00:26:17.833Z,22.88
2018-08-10T00:26:48.951Z,22.88
2018-08-10T00:27:20.140Z,22.89
2018-08-10T00:27:51.360Z,22.89
2018-08-10T00:28:22.507Z,22.90
2018-08-10T00:28:53.619Z,22.89
2018-08-10T00:29:24.732Z,22.89
2018-08-10T00:29:55.883Z,22.86
2018-08-10T00:30:27.117Z,22.84
2018-08-10T00:30:58.228Z,22.81
2018-08-10T00:31:29.344Z,22.77
2018-08-10T00:32:00.487Z,22.76
2018-08-10T00:32:31.665Z,22.76
2018-08-10T00:33:02.845Z,22.77
2018-08-10T00:33:33.993Z,22.80
2018-08-10T00:34:05.100Z,22.79
2018-08-10T00:34:36.291Z,22.81
2018-08-10T00:35:07.436Z,22.83
2018-08-10T00:35:38.553Z,22.86
2018-08-10T00:36:09.719Z,22.83
2018-08-10T00:36:40.840Z,22.84
2018-08-10T00:37:11.950Z,22.86
2018-08-10T00:37:43.117Z,22.88
2018-08-10T00:38:14.279Z,22.90
2018-08-10T00:38:45.428Z,22.94
2018-08-10T00:39:16.547Z,22.93
2018-08-10T00:39:47.716Z,22.92
2018-08-10T00:40:18.843Z,22.92
2018-08-10T00:40:50.013Z,22.97
2018-08-10T00:41:21.185Z,22.98
2018-08-10T00:41:52.299Z,22.97
2018-08-10T00:42:23.468Z,22.89
2018-08-10T00:42:54.598Z,22.94
2018-08-10T00:43:25.854Z,22.95
2018-08-10T00:43:56.977Z,22.97
2018-08-10T00:44:28.096Z,22.97
2018-08-10T00:44:59.274Z,22.98
2018-08-10T00:45:30.436Z,22.98
2018-08-10T00:46:01.561Z,22.95
2018-08-10T00:46:32.783Z,22.94
2018-08-10T00:47:03.913Z,22.93
2018-08-10T00:47:35.028Z,22.95
2018-08-10T00:48:06.424Z,22.96
2018-08-10T00:48:37.601Z,22.95
2018-08-10T00:49:08.852Z,22.91
2018-08-10T00:49:39.980Z,22.92
2018-08-10T00:50:11.131Z,22.95
2018-08-10T00:50:42.256Z,22.96
2018-08-10T00:51:13.362Z,22.99
2018-08-10T00:51:44.533Z,23.00
2018-08-10T00:52:15.648Z,23.02
2018-08-10T00:52:46.761Z,23.03
2018-08-10T00:53:17.881Z,23.04
2018-08-10T00:53:49.107Z,23.04
2018-08-10T00:54:20.236Z,23.07
2018-08-10T00:54:51.346Z,23.05
2018-08-10T00:55:22.548Z,23.05
2018-08-10T00:55:53.729Z,23.03
2018-08-10T00:56:24.835Z,23.01
2018-08-10T00:56:56.012Z,22.99
2018-08-10T00:57:27.130Z,22.98
2018-08-10T00:57:58.243Z,22.95
2018-08-10T00:58:29.423Z,22.92
2018-08-10T00:59:00.580Z,22.92
2018-08-10T00:59:31.892Z,22.91
2018-08-10T01:00:03.027Z,22.90
2018-08-10T01:00:34.202Z,22.88
2018-08-10T01:01:05.366Z,22.88
2018-08-10T01:01:36.545Z,22.87
2018-08-10T01:02:07.713Z,22.82
2018-08-10T01:02:38.824Z,22.80
2018-08-10T01:03:10.002Z,22.74
2018-08-10T01:03:41.185Z,22.67
2018-08-10T01:04:12.365Z,22.60
2018-08-10T01:04:43.472Z,22.56
2018-08-10T01:05:14.646Z,22.54
2018-08-10T01:05:45.810Z,22.50
2018-08-10T01:06:16.985Z,22.48
2018-08-10T01:06:48.159Z,22.47
2018-08-10T01:07:19.332Z,22.47
2018-08-10T01:07:50.496Z,22.44
2018-08-10T01:08:21.680Z,22.41
2018-08-10T01:08:52.861Z,22.36
2018-08-10T01:09:24.031Z,22.36
2018-08-10T01:09:55.199Z,22.31
2018-08-10T01:10:26.308Z,22.25
2018-08-10T01:10:57.475Z,22.20
2018-08-10T01:11:28.591Z,22.19
2018-08-10T01:11:59.767Z,22.19
2018-08-10T01:12:31.000Z,22.19
2018-08-10T01:13:02.180Z,22.21
2018-08-10T01:13:33.354Z,22.20
2018-08-10T01:14:04.487Z,22.19
2018-08-10T01:14:35.717Z,22.19
2018-08-10T01:15:06.900Z,22.18
2018-08-10T01:15:38.072Z,22.19
2018-08-10T01:16:09.243Z,22.18
2018-08-10T01:16:40.405Z,22.17
2018-08-10T01:17:11.548Z,22.16
2018-08-10T01:17:42.721Z,22.15
2018-08-10T01:18:13.842Z,22.16
2018-08-10T01:18:45.005Z,22.16
2018-08-10T01:19:16.170Z,22.16
2018-08-10T01:19:47.396Z,22.18
2018-08-10T01:20:18.573Z,22.20
2018-08-10T01:20:49.741Z,22.19
2018-08-10T01:21:20.903Z,22.22
2018-08-10T01:21:52.081Z,22.23
2018-08-10T01:22:23.373Z,22.21
2018-08-10T01:22:54.552Z,22.21
2018-08-10T01:23:25.708Z,22.20
2018-08-10T01:23:56.822Z,22.19
2018-08-10T01:24:28.063Z,22.19
2018-08-10T01:24:59.259Z,22.21
2018-08-10T01:25:30.620Z,22.21
2018-08-10T01:26:01.740Z,22.15
2018-08-10T01:26:32.858Z,22.13
2018-08-10T01:27:04.056Z,22.13
2018-08-10T01:27:35.762Z,22.13
2018-08-10T01:28:06.884Z,22.12
2018-08-10T01:28:38.062Z,22.12
2018-08-10T01:29:09.137Z,22.12
2018-08-10T01:29:40.361Z,22.08
2018-08-10T01:30:11.601Z,22.04
2018-08-10T01:30:42.816Z,22.05
2018-08-10T01:31:14.014Z,22.06
2018-08-10T01:31:45.121Z,22.08
2018-08-10T01:32:16.280Z,22.08
2018-08-10T01:32:47.391Z,22.06
2018-08-10T01:33:18.505Z,22.07
2018-08-10T01:33:49.652Z,22.04
2018-08-10T01:34:20.811Z,22.03
2018-08-10T01:34:51.947Z,22.01
2018-08-10T01:35:23.136Z,22.00
2018-08-10T01:35:54.468Z,21.96
2018-08-10T01:36:25.587Z,21.94
2018-08-10T01:36:56.765Z,21.91
2018-08-10T01:37:28.085Z,21.89
2018-08-10T01:37:59.200Z,21.91
2018-08-10T01:38:30.446Z,21.92
2018-08-10T01:39:01.618Z,21.92
2018-08-10T01:39:32.801Z,21.92
2018-08-10T01:40:03.973Z,21.91
2018-08-10T01:40:35.187Z,21.91
2018-08-10T01:41:06.295Z,21.89
2018-08-10T01:41:37.528Z,21.87
2018-08-10T01:42:08.675Z,21.84
2018-08-10T01:42:39.788Z,21.84
2018-08-10T01:43:10.952Z,21.81
2018-08-10T01:43:42.186Z,21.75
2018-08-10T01:44:13.303Z,21.74
2018-08-10T01:44:44.416Z,21.72
2018-08-10T01:45:15.636Z,21.68
2018-08-10T01:45:46.756Z,21.64
2018-08-10T01:46:17.936Z,21.63
2018-08-10T01:46:49.045Z,21.63
2018-08-10T01:47:20.314Z,21.60
2018-08-10T01:47:51.435Z,21.58
2018-08-10T01:48:22.603Z,21.59
2018-08-10T01:48:53.826Z,21.59
2018-08-10T01:49:25.092Z,21.59
2018-08-10T01:49:56.223Z,21.56
2018-08-10T01:50:27.459Z,21.50
2018-08-10T01:50:58.686Z,21.47
2018-08-10T01:51:29.803Z,21.46
2018-08-10T01:52:00.964Z,21.48
2018-08-10T01:52:32.144Z,21.49
2018-08-10T01:53:03.348Z,21.51
2018-08-10T01:53:34.525Z,21.50
2018-08-10T01:54:05.688Z,21.45
2018-08-10T01:54:36.871Z,21.41
2018-08-10T01:55:07.984Z,21.39
2018-08-10T01:55:39.114Z,21.37
2018-08-10T01:56:10.331Z,21.32
2018-08-10T01:56:41.504Z,21.29
2018-08-10T01:57:12.617Z,21.30
2018-08-10T01:57:43.875Z,21.32
2018-08-10T01:58:15.000Z,21.31
2018-08-10T01:58:46.176Z,21.32
2018-08-10T01:59:17.401Z,21.34
2018-08-10T01:59:48.576Z,21.35
2018-08-10T02:00:19.755Z,21.37
2018-08-10T02:00:50.937Z,21.35
2018-08-10T02:01:22.116Z,21.33
2018-08-10T02:01:53.223Z,21.33
2018-08-10T02:02:24.454Z,21.33
2018-08-10T02:02:55.608Z,21.32
2018-08-10T02:03:26.727Z,21.30
2018-08-10T02:03:57.891Z,21.29
2018-08-10T02:04:29.048Z,21.26
2018-08-10T02:05:00.231Z,21.24
2018-08-10T02:05:31.393Z,21.22
2018-08-10T02:06:02.683Z,21.20
2018-08-10T02:06:33.807Z,21.19
2018-08-10T02:07:04.964Z,21.17
2018-08-10T02:07:36.133Z,21.18
2018-08-10T02:08:07.354Z,21.17
2018-08-10T02:08:38.549Z,21.15
2018-08-10T02:09:09.664Z,21.14
2018-08-10T02:09:40.829Z,21.15
2018-08-10T02:10:11.950Z,21.17
2018-08-10T02:10:43.059Z,21.17
2018-08-10T02:11:14.250Z,21.17
2018-08-10T02:11:45.424Z,21.19
2018-08-10T02:12:16.580Z,21.22
2018-08-10T02:12:47.748Z,21.25
2018-08-10T02:13:18.908Z,21.29
2018-08-10T02:13:50.024Z,21.30
2018-08-10T02:14:21.294Z,21.32
2018-08-10T02:14:52.477Z,21.30
2018-08-10T02:15:23.599Z,21.29
2018-08-10T02:15:54.761Z,21.29
2018-08-10T02:16:25.896Z,21.29
2018-08-10T02:16:57.104Z,21.30
2018-08-10T02:17:28.285Z,21.31
2018-08-10T02:17:59.395Z,21.33
2018-08-10T02:18:30.557Z,21.35
2018-08-10T02:19:01.694Z,21.36
2018-08-10T02:19:32.804Z,21.35
2018-08-10T02:20:03.977Z,21.35
2018-08-10T02:20:35.124Z,21.33
2018-08-10T02:21:06.288Z,21.32
2018-08-10T02:21:37.476Z,21.29
2018-08-10T02:22:08.596Z,21.27
2018-08-10T02:22:39.764Z,21.25
2018-08-10T02:23:10.926Z,21.22
2018-08-10T02:23:42.106Z,21.22
2018-08-10T02:24:13.242Z,21.19
2018-08-10T02:24:44.502Z,21.20
2018-08-10T02:25:15.623Z,21.18
2018-08-10T02:25:46.775Z,21.19
2018-08-10T02:26:17.949Z,21.19
2018-08-10T02:26:49.124Z,21.16
2018-08-10T02:27:20.235Z,21.14
2018-08-10T02:27:51.500Z,21.11
2018-08-10T02:28:22.663Z,21.12
2018-08-10T02:28:53.828Z,21.11
2018-08-10T02:29:25.034Z,21.11
2018-08-10T02:29:56.148Z,21.10
2018-08-10T02:30:27.301Z,21.10
2018-08-10T02:30:58.476Z,21.12
2018-08-10T02:31:29.648Z,21.13
2018-08-10T02:32:00.877Z,21.17
2018-08-10T02:32:31.998Z,21.16
2018-08-10T02:33:03.152Z,21.15
2018-08-10T02:33:34.322Z,21.14
2018-08-10T02:34:05.556Z,21.14
2018-08-10T02:34:36.692Z,21.14
2018-08-10T02:35:07.846Z,21.12
2018-08-10T02:35:39.008Z,21.14
2018-08-10T02:36:10.192Z,21.12
2018-08-10T02:36:41.339Z,21.12
2018-08-10T02:37:12.452Z,21.11
2018-08-10T02:37:43.616Z,21.12
2018-08-10T02:38:14.809Z,21.13
2018-08-10T02:38:45.976Z,21.08
2018-08-10T02:39:17.217Z,21.05
2018-08-10T02:39:48.333Z,20.99
2018-08-10T02:40:19.504Z,20.98
2018-08-10T02:40:50.689Z,20.96
2018-08-10T02:41:21.863Z,20.92
2018-08-10T02:41:52.994Z,20.90
2018-08-10T02:42:24.734Z,20.85
2018-08-10T02:42:55.969Z,20.84
2018-08-10T02:43:27.093Z,20.81
2018-08-10T02:43:58.266Z,20.79
2018-08-10T02:44:29.476Z,20.77
2018-08-10T02:45:00.650Z,20.75
2018-08-10T02:45:31.764Z,20.76
2018-08-10T02:46:02.948Z,20.78
2018-08-10T02:46:34.109Z,20.76
2018-08-10T02:47:05.274Z,20.74
2018-08-10T02:47:36.408Z,20.73
2018-08-10T02:48:07.614Z,20.72
2018-08-10T02:48:38.840Z,20.72
2018-08-10T02:49:09.960Z,20.72
2018-08-10T02:49:41.064Z,20.77
2018-08-10T02:50:12.197Z,20.80
2018-08-10T02:50:43.370Z,20.83
2018-08-10T02:51:14.490Z,20.85
2018-08-10T02:51:45.696Z,20.87
2018-08-10T02:52:16.823Z,20.89
2018-08-10T02:52:47.981Z,20.92
2018-08-10T02:53:19.100Z,20.93
2018-08-10T02:53:50.221Z,20.93
2018-08-10T02:54:21.392Z,20.92
2018-08-10T02:54:52.516Z,20.91
2018-08-10T02:55:23.683Z,20.88
2018-08-10T02:55:54.880Z,20.87
2018-08-10T02:56:26.060Z,20.88
2018-08-10T02:56:57.317Z,20.86
2018-08-10T02:57:28.436Z,20.87
2018-08-10T02:57:59.609Z,20.88
2018-08-10T02:58:30.730Z,20.88
2018-08-10T02:59:01.907Z,20.86
2018-08-10T02:59:33.017Z,20.87
2018-08-10T03:00:04.230Z,20.85
2018-08-10T03:00:35.400Z,20.85
2018-08-10T03:01:06.522Z,20.84
2018-08-10T03:01:37.693Z,20.84
2018-08-10T03:02:08.905Z,20.84
2018-08-10T03:02:40.071Z,20.83
2018-08-10T03:03:11.214Z,20.84
2018-08-10T03:03:42.326Z,20.83
2018-08-10T03:04:13.493Z,20.84
2018-08-10T03:04:44.681Z,20.82
2018-08-10T03:05:15.857Z,20.82
2018-08-10T03:05:46.985Z,20.82
2018-08-10T03:06:18.191Z,20.80
2018-08-10T03:06:49.312Z,20.78
2018-08-10T03:07:20.420Z,20.78
2018-08-10T03:07:51.637Z,20.77
2018-08-10T03:08:22.816Z,20.75
2018-08-10T03:08:53.919Z,20.74
2018-08-10T03:09:25.094Z,20.73
2018-08-10T03:09:56.205Z,20.74
2018-08-10T03:10:27.367Z,20.74
2018-08-10T03:10:58.476Z,20.72
2018-08-10T03:11:29.627Z,20.72
2018-08-10T03:12:00.742Z,20.75
2018-08-10T03:12:31.851Z,20.76
2018-08-10T03:13:03.010Z,20.76
2018-08-10T03:13:34.156Z,20.74
2018-08-10T03:14:05.384Z,20.75
2018-08-10T03:14:36.573Z,20.76
2018-08-10T03:15:07.688Z,20.77
2018-08-10T03:15:38.892Z,20.79
2018-08-10T03:16:10.072Z,20.79
2018-08-10T03:16:41.196Z,20.84
2018-08-10T03:17:12.308Z,20.86
2018-08-10T03:17:43.517Z,20.87
2018-08-10T03:18:14.666Z,20.88
2018-08-10T03:18:45.888Z,20.91
2018-08-10T03:19:17.063Z,20.91
2018-08-10T03:19:48.249Z,20.91
2018-08-10T03:20:19.411Z,20.88
2018-08-10T03:20:50.686Z,20.85
2018-08-10T03:21:21.808Z,20.83
2018-08-10T03:21:52.972Z,20.84
2018-08-10T03:22:24.147Z,20.86
2018-08-10T03:22:55.319Z,20.85
2018-08-10T03:23:26.496Z,20.84
2018-08-10T03:23:57.642Z,20.83
2018-08-10T03:24:28.772Z,20.82
2018-08-10T03:24:59.943Z,20.83
2018-08-10T03:25:31.128Z,20.82
2018-08-10T03:26:02.325Z,20.80
2018-08-10T03:26:33.588Z,20.79
2018-08-10T03:27:04.778Z,20.74
2018-08-10T03:27:35.890Z,20.73
2018-08-10T03:28:07.052Z,20.73
2018-08-10T03:28:40.193Z,20.75
2018-08-10T03:29:11.316Z,20.75
2018-08-10T03:29:42.491Z,20.76
2018-08-10T03:30:13.680Z,20.75
2018-08-10T03:30:44.855Z,20.76
2018-08-10T03:31:16.150Z,20.77
2018-08-10T03:31:47.329Z,20.78
2018-08-10T03:32:18.555Z,20.79
2018-08-10T03:32:49.781Z,20.80
2018-08-10T03:33:20.957Z,20.82
2018-08-10T03:33:52.069Z,20.82
2018-08-10T03:34:23.253Z,20.83
2018-08-10T03:34:54.437Z,20.85
2018-08-10T03:35:25.604Z,20.89
2018-08-10T03:35:56.826Z,20.78
2018-08-10T03:36:28.031Z,20.96
2018-08-10T03:36:59.143Z,21.01
2018-08-10T03:37:30.321Z,21.04
2018-08-10T03:38:01.494Z,21.09
2018-08-10T03:38:32.676Z,21.12
2018-08-10T03:39:03.828Z,21.13
2018-08-10T03:39:34.944Z,21.13
2018-08-10T03:40:06.121Z,21.11
2018-08-10T03:40:37.278Z,21.11
2018-08-10T03:41:08.395Z,21.08
2018-08-10T03:41:39.578Z,21.07
2018-08-10T03:42:10.743Z,21.08
2018-08-10T03:42:41.863Z,21.09
2018-08-10T03:43:12.976Z,21.10
2018-08-10T03:43:44.095Z,21.11
2018-08-10T03:44:15.212Z,21.13
2018-08-10T03:44:46.336Z,21.17
2018-08-10T03:45:17.509Z,21.17
2018-08-10T03:45:48.621Z,21.17
2018-08-10T03:46:19.767Z,21.17
2018-08-10T03:46:50.936Z,21.13
2018-08-10T03:47:22.061Z,21.13
2018-08-10T03:47:53.228Z,21.13
2018-08-10T03:48:24.453Z,21.14
2018-08-10T03:48:55.563Z,21.12
2018-08-10T03:49:26.672Z,21.11
2018-08-10T03:49:57.941Z,21.09
2018-08-10T03:50:29.141Z,21.10
2018-08-10T03:51:00.253Z,21.12
2018-08-10T03:51:31.470Z,21.14
2018-08-10T03:52:02.622Z,21.15
2018-08-10T03:52:33.809Z,21.17
2018-08-10T03:53:04.984Z,21.20
2018-08-10T03:53:36.095Z,21.25
2018-08-10T03:54:07.204Z,21.33
2018-08-10T03:54:38.317Z,21.42
2018-08-10T03:55:09.430Z,21.54
2018-08-10T03:55:40.545Z,21.67
2018-08-10T03:56:11.757Z,21.78
2018-08-10T03:56:42.941Z,21.87
2018-08-10T03:57:14.089Z,21.94
2018-08-10T03:57:45.260Z,21.99
2018-08-10T03:58:16.380Z,21.99
2018-08-10T03:58:47.491Z,21.98
2018-08-10T03:59:18.662Z,21.94
2018-08-10T03:59:49.798Z,21.93
2018-08-10T04:00:20.902Z,21.93
2018-08-10T04:00:52.126Z,21.91
2018-08-10T04:01:23.289Z,21.88
2018-08-10T04:01:54.492Z,21.89
2018-08-10T04:02:25.677Z,21.91
2018-08-10T04:02:56.909Z,21.93
2018-08-10T04:03:28.076Z,21.96
2018-08-10T04:03:59.199Z,22.00
2018-08-10T04:04:30.371Z,22.03
2018-08-10T04:05:01.598Z,22.02
2018-08-10T04:05:32.733Z,22.01
2018-08-10T04:06:03.844Z,22.00
2018-08-10T04:06:35.005Z,22.01
2018-08-10T04:07:06.225Z,22.01
2018-08-10T04:07:37.401Z,22.02
2018-08-10T04:08:08.539Z,22.04
2018-08-10T04:08:39.648Z,22.08
2018-08-10T04:09:10.854Z,22.12
2018-08-10T04:09:42.104Z,22.18
2018-08-10T04:10:13.255Z,22.23
2018-08-10T04:10:44.437Z,22.29
2018-08-10T04:11:15.817Z,22.34
2018-08-10T04:11:47.057Z,22.39
2018-08-10T04:12:18.352Z,22.42
2018-08-10T04:12:49.548Z,22.41
2018-08-10T04:13:20.668Z,22.40
2018-08-10T04:13:51.788Z,22.39
2018-08-10T04:14:22.893Z,22.38
2018-08-10T04:14:54.104Z,22.36
2018-08-10T04:15:25.326Z,22.35
2018-08-10T04:15:56.576Z,22.34
2018-08-10T04:16:27.683Z,22.36
2018-08-10T04:16:58.840Z,22.39
2018-08-10T04:17:30.024Z,22.38
2018-08-10T04:18:01.141Z,22.41
2018-08-10T04:18:32.325Z,22.44
2018-08-10T04:19:03.483Z,22.45
2018-08-10T04:19:34.669Z,22.47
2018-08-10T04:20:05.821Z,22.47
2018-08-10T04:20:36.927Z,22.50
2018-08-10T04:21:08.073Z,22.55
2018-08-10T04:21:39.195Z,22.61
2018-08-10T04:22:10.364Z,22.66
2018-08-10T04:22:41.545Z,22.73
2018-08-10T04:23:12.695Z,22.77
2018-08-10T04:23:43.886Z,22.82
2018-08-10T04:24:15.004Z,22.91
2018-08-10T04:24:46.167Z,22.97
2018-08-10T04:25:17.371Z,23.00
2018-08-10T04:25:48.529Z,23.04
2018-08-10T04:26:19.663Z,23.09
2018-08-10T04:26:50.931Z,23.15
2018-08-10T04:27:22.199Z,23.21
2018-08-10T04:27:53.322Z,23.30
2018-08-10T04:28:24.587Z,23.39
2018-08-10T04:28:55.777Z,23.53
2018-08-10T04:29:26.932Z,23.66
2018-08-10T04:29:58.035Z,23.78
2018-08-10T04:30:29.281Z,23.97
2018-08-10T04:31:00.449Z,24.19
2018-08-10T04:31:31.579Z,24.48
2018-08-10T04:32:02.692Z,24.75
2018-08-10T04:32:33.894Z,25.02
2018-08-10T04:33:04.999Z,25.26
2018-08-10T04:33:36.118Z,25.46
2018-08-10T04:34:07.371Z,25.65
2018-08-10T04:34:38.667Z,25.87
2018-08-10T04:35:09.899Z,26.04
2018-08-10T04:35:41.059Z,26.15
2018-08-10T04:36:12.178Z,26.26
2018-08-10T04:36:43.413Z,26.38
2018-08-10T04:37:14.632Z,26.56
2018-08-10T04:37:45.809Z,26.68
2018-08-10T04:38:16.924Z,26.70
2018-08-10T04:38:48.152Z,27.01
2018-08-10T04:39:19.344Z,27.09
2018-08-10T04:39:50.569Z,27.22
2018-08-10T04:40:21.748Z,27.38
2018-08-10T04:40:52.894Z,27.56
2018-08-10T04:41:24.072Z,27.78
2018-08-10T04:41:55.203Z,27.90
2018-08-10T04:42:26.501Z,27.98
2018-08-10T04:42:57.845Z,28.11
2018-08-10T04:43:28.979Z,28.17
2018-08-10T04:44:00.236Z,28.34
2018-08-10T04:44:31.424Z,28.51
2018-08-10T04:45:02.693Z,28.58
2018-08-10T04:45:34.067Z,28.72
2018-08-10T04:46:05.370Z,28.88
2018-08-10T04:46:36.595Z,29.00
2018-08-10T04:47:07.723Z,29.14
2018-08-10T04:47:38.907Z,29.22
2018-08-10T04:48:10.110Z,29.29
2018-08-10T04:48:41.245Z,29.43
2018-08-10T04:49:12.380Z,29.49
2018-08-10T04:49:43.504Z,29.41
2018-08-10T04:50:14.669Z,29.50
2018-08-10T04:50:45.802Z,29.58
2018-08-10T04:51:16.979Z,29.69
2018-08-10T04:51:48.212Z,29.79
2018-08-10T04:52:19.389Z,29.84
2018-08-10T04:52:50.512Z,29.85
2018-08-10T04:53:21.718Z,29.84
2018-08-10T04:53:52.844Z,29.88
2018-08-10T04:54:24.047Z,29.94
2018-08-10T04:54:55.278Z,29.89
2018-08-10T04:55:26.433Z,29.80
2018-08-10T04:55:57.593Z,29.74
2018-08-10T04:56:28.820Z,29.69
2018-08-10T04:56:59.946Z,29.80
2018-08-10T04:57:31.115Z,29.83
2018-08-10T04:58:02.227Z,29.79
2018-08-10T04:58:33.441Z,29.60
2018-08-10T04:59:04.567Z,29.45
2018-08-10T04:59:35.742Z,29.23
2018-08-10T05:00:06.912Z,28.91
2018-08-10T05:00:38.287Z,28.61
2018-08-10T05:01:09.452Z,28.56
2018-08-10T05:01:40.611Z,28.67
2018-08-10T05:02:11.997Z,28.92
2018-08-10T05:02:43.107Z,29.21
2018-08-10T05:03:14.227Z,29.44
2018-08-10T05:03:45.472Z,29.64
2018-08-10T05:04:16.538Z,29.91
2018-08-10T05:04:47.770Z,29.95
2018-08-10T05:05:19.012Z,30.24
2018-08-10T05:05:50.203Z,30.52
2018-08-10T05:06:21.336Z,30.81
2018-08-10T05:06:52.626Z,30.95
2018-08-10T05:07:23.749Z,30.93
2018-08-10T05:07:54.868Z,30.92
2018-08-10T05:08:26.053Z,30.86
2018-08-10T05:08:57.347Z,30.82
2018-08-10T05:09:28.458Z,30.85
2018-08-10T05:09:59.981Z,30.90
2018-08-10T05:10:31.195Z,30.88
2018-08-10T05:11:02.422Z,31.05
2018-08-10T05:11:33.604Z,31.16
2018-08-10T05:12:04.773Z,31.09
2018-08-10T05:12:35.976Z,31.25
2018-08-10T05:13:07.155Z,31.37
2018-08-10T05:13:38.358Z,31.42
2018-08-10T05:14:09.564Z,31.34
2018-08-10T05:14:40.743Z,31.33
2018-08-10T05:15:11.898Z,31.29
2018-08-10T05:15:43.151Z,31.16
2018-08-10T05:16:14.340Z,31.10
2018-08-10T05:16:45.516Z,30.99
2018-08-10T05:17:16.640Z,30.77
2018-08-10T05:17:47.867Z,30.36
2018-08-10T05:18:18.985Z,30.29
2018-08-10T05:18:50.099Z,30.47
2018-08-10T05:19:21.272Z,30.32
2018-08-10T05:19:52.408Z,30.41
2018-08-10T05:20:23.646Z,30.61
2018-08-10T05:20:54.821Z,30.66
2018-08-10T05:21:25.945Z,30.91
2018-08-10T05:21:57.178Z,31.07
2018-08-10T05:22:28.364Z,31.12
2018-08-10T05:22:59.632Z,31.26
2018-08-10T05:23:30.764Z,31.36
2018-08-10T05:24:01.939Z,31.40
2018-08-10T05:24:33.072Z,31.36
2018-08-10T05:25:04.347Z,31.29
2018-08-10T05:25:35.748Z,31.22
2018-08-10T05:26:07.102Z,31.26
2018-08-10T05:26:38.224Z,31.21
2018-08-10T05:27:09.401Z,31.08
2018-08-10T05:27:40.539Z,31.07
2018-08-10T05:28:11.667Z,31.02
2018-08-10T05:28:42.790Z,30.87
2018-08-10T05:29:13.957Z,30.88
2018-08-10T05:29:45.080Z,30.72
2018-08-10T05:30:16.237Z,30.58
2018-08-10T05:30:47.474Z,30.62
2018-08-10T05:31:18.588Z,30.68
2018-08-10T05:31:49.748Z,30.77
2018-08-10T05:32:20.912Z,30.93
2018-08-10T05:32:52.089Z,31.00
2018-08-10T05:33:23.224Z,30.66
2018-08-10T05:33:54.437Z,30.57
2018-08-10T05:34:25.555Z,30.58
2018-08-10T05:34:56.763Z,30.67
2018-08-10T05:35:28.127Z,30.72
2018-08-10T05:35:59.313Z,30.89
2018-08-10T05:36:30.656Z,30.91
2018-08-10T05:37:01.929Z,30.88
2018-08-10T05:37:33.444Z,30.86
2018-08-10T05:38:04.729Z,30.86
2018-08-10T05:38:35.865Z,30.80
2018-08-10T05:39:07.114Z,30.83
2018-08-10T05:39:38.346Z,30.89
2018-08-10T05:40:09.507Z,31.02
2018-08-10T05:40:40.709Z,31.00
2018-08-10T05:41:11.962Z,30.88
2018-08-10T05:41:43.082Z,30.67
2018-08-10T05:42:14.252Z,30.39
2018-08-10T05:42:45.433Z,30.34
2018-08-10T05:43:16.680Z,30.37
2018-08-10T05:43:47.879Z,30.44
2018-08-10T05:44:19.007Z,30.48
2018-08-10T05:44:50.141Z,30.47
2018-08-10T05:45:21.504Z,30.43
2018-08-10T05:45:52.673Z,30.38
2018-08-10T05:46:23.968Z,30.46
2018-08-10T05:46:55.081Z,30.15
2018-08-10T05:47:26.333Z,30.11
2018-08-10T05:47:57.526Z,30.19
2018-08-10T05:48:28.769Z,30.19
2018-08-10T05:49:00.012Z,30.14
2018-08-10T05:49:31.153Z,29.98
2018-08-10T05:50:02.538Z,30.02
2018-08-10T05:50:33.717Z,30.02
2018-08-10T05:51:05.006Z,29.93
2018-08-10T05:51:36.081Z,29.90
2018-08-10T05:52:07.269Z,29.91
2018-08-10T05:52:38.443Z,29.94
2018-08-10T05:53:09.604Z,29.90
2018-08-10T05:53:40.756Z,29.90
2018-08-10T05:54:11.940Z,29.87
2018-08-10T05:54:43.436Z,29.68
2018-08-10T05:55:14.877Z,29.37
2018-08-10T05:55:46.241Z,29.26
2018-08-10T05:56:17.510Z,29.26
2018-08-10T05:56:48.986Z,29.31
2018-08-10T05:57:20.305Z,29.36
2018-08-10T05:57:51.578Z,29.32
2018-08-10T05:58:22.846Z,29.33
2018-08-10T05:58:53.998Z,29.41
2018-08-10T05:59:25.199Z,29.44
2018-08-10T05:59:56.393Z,29.53
2018-08-10T06:00:27.746Z,29.46
2018-08-10T06:00:58.953Z,29.42
2018-08-10T06:01:30.193Z,29.33
2018-08-10T06:02:01.389Z,29.19
2018-08-10T06:02:32.985Z,29.08
2018-08-10T06:03:04.116Z,28.91
2018-08-10T06:03:35.343Z,28.60
2018-08-10T06:04:06.620Z,28.38
2018-08-10T06:04:37.695Z,28.28
2018-08-10T06:05:09.151Z,28.27
2018-08-10T06:05:40.378Z,28.24
2018-08-10T06:06:11.520Z,28.18
2018-08-10T06:06:42.637Z,28.20
2018-08-10T06:07:13.752Z,28.15
2018-08-10T06:07:44.932Z,28.18
2018-08-10T06:08:16.045Z,28.27
2018-08-10T06:08:47.217Z,28.40
2018-08-10T06:09:18.333Z,28.43
2018-08-10T06:09:49.456Z,28.39
2018-08-10T06:10:20.577Z,28.35
2018-08-10T06:10:51.833Z,28.29
2018-08-10T06:11:22.970Z,28.36
2018-08-10T06:11:54.175Z,28.43
2018-08-10T06:12:25.407Z,28.48
2018-08-10T06:12:56.524Z,28.42
2018-08-10T06:13:27.696Z,28.36
2018-08-10T06:13:58.892Z,28.37
2018-08-10T06:14:30.017Z,28.39
2018-08-10T06:15:01.198Z,28.45
2018-08-10T06:15:32.353Z,28.35
2018-08-10T06:16:03.533Z,28.35
2018-08-10T06:16:34.691Z,28.38
2018-08-10T06:17:05.817Z,28.32
2018-08-10T06:17:37.027Z,28.29
2018-08-10T06:18:08.253Z,28.24
2018-08-10T06:18:39.385Z,28.31
2018-08-10T06:19:10.552Z,28.40
2018-08-10T06:19:41.769Z,28.49
2018-08-10T06:20:12.850Z,28.55
2018-08-10T06:20:44.076Z,28.50
2018-08-10T06:21:15.213Z,28.36
2018-08-10T06:21:46.484Z,28.41
2018-08-10T06:22:17.661Z,28.42
2018-08-10T06:22:48.833Z,28.40
2018-08-10T06:23:19.990Z,28.31
2018-08-10T06:23:51.113Z,28.30
2018-08-10T06:24:22.335Z,28.31
2018-08-10T06:24:53.694Z,28.34
2018-08-10T06:25:24.817Z,28.31
2018-08-10T06:25:55.931Z,28.21
2018-08-10T06:26:27.049Z,28.16
2018-08-10T06:26:58.284Z,28.18
2018-08-10T06:27:29.398Z,28.11
2018-08-10T06:28:00.627Z,28.11
2018-08-10T06:28:31.876Z,28.20
2018-08-10T06:29:03.112Z,28.22
2018-08-10T06:29:34.232Z,28.24
2018-08-10T06:30:05.412Z,28.29
2018-08-10T06:30:36.591Z,28.28
2018-08-10T06:31:07.705Z,28.26
2018-08-10T06:31:38.841Z,28.25
2018-08-10T06:32:10.063Z,28.23
2018-08-10T06:32:41.180Z,28.25
2018-08-10T06:33:12.430Z,28.28
2018-08-10T06:33:43.617Z,28.27
2018-08-10T06:34:14.882Z,28.27
2018-08-10T06:34:45.968Z,28.28
2018-08-10T06:35:17.132Z,28.30
2018-08-10T06:35:48.365Z,28.22
2018-08-10T06:36:19.597Z,28.18
2018-08-10T06:36:50.778Z,28.20
2018-08-10T06:37:21.968Z,28.21
2018-08-10T06:37:53.155Z,28.25
2018-08-10T06:38:24.385Z,28.30
2018-08-10T06:38:55.524Z,28.30
2018-08-10T06:39:26.767Z,28.30
2018-08-10T06:39:57.902Z,28.27
2018-08-10T06:40:29.033Z,28.28
2018-08-10T06:41:00.277Z,28.29
2018-08-10T06:41:31.455Z,28.32